Aérodrome :
LOGIN :

S'inscrire | Disclaimer

   EN    FR    IT 

 










Légende :    VFR   VFR Marginal   IFR   IFR Intensif   IFR Très Intensif
Visi : 
Plafond : 
>= 8 km
>= 3000ft
5 à 8 km
1000 à 3000 ft
1500m à 5 km
500 à 1000 ft
800 à 1500m
200 à 500 ft
< 800m
< 200 ft
Symboles :   Orages  Brouillard  Fortes neiges  Fortes précipitations  Vent > 20 kt
SIGMETs :   Divers  Orages  Givrage  Turbulence  Onde Orograph.  Cendres Volcan.







- Altitude de l'aérodrome : 34 ft
- Code IATA : BLK
- Voir les cartes d'approche


EGNH - Blackpool

DERNIER METAR :
  • 191320Z 26024KT 9999 VCSH FEW010 SCT015 BKN040 05/01 Q1004

METARs EXPIRÉS :
  • 191250Z 26025KT 9999 VCSH FEW010 BKN040 05/02 Q1004 RESHRAGS
  • 191150Z 25022KT 9999 VCSH SCT010 BKN028 05/02 Q1004
  • 191120Z 25025G37KT 9999 VCSH SCT010 SCT040 04/02 Q1004
  • 191050Z 26025KT 9999 -SHRA FEW014 SCT023 05/02 Q1004

TAF TAF EGNH
Valide du 19 à 12h jusqu'au 19 à 21h UTC


191059Z 1912/1921 27018KT 9999 FEW009 SCT020
PROB30
TEMPO 1912/1921 27024G34KT 6000 SHRA BKN009
ATIS : +44 1253 343 434 (x8315)
Pas de NOTAMs connus pour ce terrain.



MET'MAP, la Météo Aéronautique d'un coup d'oeil ! - Copyright ORBIFLY Décembre 2007 - Disclaimer

ORBIFLY MET'MAP TEAM :

Programmation & Développement : Alexandra Zaïnal
Conception & Développement : Baudouin d'Aumeries
Co-Programmation & Développement : Marc-Olivier Méhu
Soutien technique & logistique : Manuel Goepfert

Contact : metmap@orbifly.com




SOURCES & CREDITS :

   NOAA